Saturday, May 28, 2016
22:12 UTC
  |  Log In   |  Register Free
Airport Search:

Visalia Municipal Airport
(KVIS)

Visalia Municipal Airport Diagram
No Airport Diagram Available

FAA data valid effective Mar 31 2016 - May 26 2016 (unless otherwise noted).

 
 
 
 
 
 
 
 
 
 
 
 
 
 
Current Aviation Weather for KVIS

Weather Summary


The most recent METAR observation for VIS was updated at: 12:56 UTC
METAR for KVIS is not available. Closest METAR is for KHJO
KVIS  (most recent observation was updatred at 28:21 UTC)
282156Z AUTO 31008KT 10SM CLR 32/09 A2978 RMK AO2 SLP089 T03170089

KHJO  (11.4 nm NE)   (most recent observation was updated at 28:21 UTC)
282153Z AUTO 35006KT 10SM CLR 32/04 A2978 RMK AO2 SLP084 T03220039

KPTV  (23.6 nm NW)   (most recent observation was updated at 28:21 UTC)
282156Z AUTO 36007KT 10SM CLR 33/08 A2978 RMK AO2 SLP091 T03280078

TAF for KVIS is not available.
KVIS
281720Z 2818/2918 VRB04KT P6SM SCT250 FM282100 32010G15KT P6SM SCT250 FM290600 VRB04KT P6SM SCT250

KNLC  (27.1 nm SE)   (most recent observation was updatred at UTC)
AMD 2723/2823 33011KT 9999 FEW035 QNH2973INS TEMPO 2723/2804 32012G18KT FM280400 33008KT 9999 FEW035 QNH2972INS FM280900 30007KT 9999 SKC QNH2980INS LAST NO AMDS AFT 2801 NEXT 3015 T14/2813Z T34/2822Z AMD 2341 FS30012


KFAT  (31.6 nm SE)   (most recent observation was updatred at 28:17 UTC)
281720Z 2818/2918 VRB04KT P6SM SCT250 FM282100 32010G15KT P6SM SCT250 FM290900 VRB04KT P6SM SCT250
GlobalAir.com is loading additional information.
 Current Weather at VIS
88.0 F° (31.1 C°)

Variable winds at 5.8 mph
Pressure:
29.80 in
Humidity:
22%
Wind:
Variable at 5.8 mph
Dew Point:
45.0 F° (7.2 C°)
Visibility:
10.00 mi
VIS NOAA Radar




Find All Airport Services Find A Hotel Find A Rental Car Find A Golf Course Find A Restaurant $100 Hamburger



Airport Weather Forecast for KVIS

Translated METAR for KVIS (2156 UTC)
METAR:
KVIS 282156Z AUTO 31008KT 10SM CLR 32/09 A2978 RMK AO2 SLP089 T03170089
Conditions at:
KVIS (Visalia Muni, CA) observed 2156 UTC 28 May 2016
Temperature:
32°C (89.6°F)
Dewpoint:
9°C (48.2°F) [RH = 24.1]
Pressure:
29.78 inches Hg (1008.5 mb)
pressure at sea level is 89 in Hg
Winds:
from the NW (310 degrees) at 9.2 mph (8 knots: 4.1 m/s)
Visibility:
10 mile(s)
Ceiling:
at least 12,000 feet AGL
Clouds:
Clear below 12,000 feet AGL
Remarks:
site is un-manned
site is automated and HAS a precipitation sensor

Translated TAF for KVIS (Visalia Muni, CA) (1720 UTC)
TAF text:
KVIS 281720Z 2818/2918 VRB04KT P6SM SCT250
Forecast period:
Saturday May 28 2016 18:00 UTC - Sunday May 29 2016 18:00 UTC
Forecast type:
FROM: standard forecast or significant change
Winds:
variable wind direction at 4.6 mph (4 knots: 2.1 m/s)
Visibility:
6 or more mile(s) (9.7+ km)
Ceiling:
at least 12,000 feet AGL
Clouds:
Scattered Clouds at 25,000 feet AGL
Weather:
no significant weather observed at this time
TAF text:
FM282100 32010G15KT P6SM SCT250
Forecast period:
Saturday May 28 2016 21:00 UTC - Sunday May 29 2016 06:00 UTC
Forecast type:
FROM: standard forecast or significant change
Winds:
from the NW (320 degrees) at 11.5 mph (10 knots: 5.1 m/s)
gusting to 17.3 mph (15 knots: 7.7 m/s)
Visibility:
6 or more mile(s) (9.7+ km)
Ceiling:
at least 12,000 feet AGL
Clouds:
Scattered Clouds at 25,000 feet AGL
Weather:
no significant weather observed at this time
TAF text:
FM290600 VRB04KT P6SM SCT250
Forecast period:
Sunday May 29 2016 06:00 UTC - Sunday May 29 2016 18:00 UTC
Forecast type:
FROM: standard forecast or significant change
Winds:
variable wind direction at 4.6 mph (4 knots: 2.1 m/s)
Visibility:
6 or more mile(s) (9.7+ km)
Ceiling:
at least 12,000 feet AGL
Clouds:
Scattered Clouds at 25,000 feet AGL
Weather:
no significant weather observed at this time
FBO's on the Field
FBO Company Facility Photos Services Transportation Aviation Fuel Prices: Prices include tax
Catering Weather Repair Courtesy Rental Type 100LL JetA JetA+ MOGAS 8087
 
Add another FBO Facility Photos Catering Weather Repair Courtesy Rental Type 100LL JetA JetA+ MOGAS 8087
Services Transportation Aviation Fuel Prices: Prices include tax
There are no FBO's currently reporting fuel at VIS. List your FBO now


model-print
model-print
model-print
model-print